Weather History for Creston, IA

Change the Weather History Date:

Saturday, September 28, 2013

  Actual Average Record
Temperature  
Mean Temperature 60 °F -  
Max Temperature 71 °F 72 °F 140 °F (1997)
Min Temperature 48 °F 49 °F 25 °F (1951)
Degree Days  
Heating Degree Days 6    
Growing Degree Days 10 (Base 50)    
Moisture  
Dew Point 56 °F    
Average Humidity 79    
Maximum Humidity 94    
Minimum Humidity 56    
Precipitation  
Precipitation 0.09 in - - ()
Sea Level Pressure  
Sea Level Pressure 29.91 in    
Wind  
Wind Speed 13 mph (WSW)    
Max Wind Speed 22 mph    
Max Gust Speed 32 mph    
Visibility 9 miles    
Events Rain    
Averages and records for this station are not official NWS values.
T = Trace of Precipitation, MM = Missing Value Source: NWS Daily Summary

Daily Weather History Graph

Daily Weather History Graph

Search for Another Location

Airport:

Trip Planner

Search our weather history database for the weather conditions in past years. The results will help you decide how hot, cold, wet, or windy it might be!

Date:

Astronomy

Sep. 28, 2013 Rise Set
Actual Time 7:11 AM CDT 7:03 PM CDT
Civil Twilight 6:43 AM CDT 7:31 PM CDT
Nautical Twilight 6:11 AM CDT 8:03 PM CDT
Astronomical Twilight 5:39 AM CDT 8:35 PM CDT
Moon 12:56 AM CDT (9/28) 3:25 PM CDT (9/28)
Length of Visible Light 12h 47m
Length of Day
11h 52m
Waning Crescent, 36% of the Moon is Illuminated
Sep 28
Waning Crescent
Oct 4
New
Oct 11
First Quarter
Oct 18
Full
Oct 26
Last Quarter

Hourly Weather History & Observations

Time (CDT) Temp. Dew Point Humidity Pressure Visibility Wind Dir Wind Speed Gust Speed Precip Events Conditions
12:15 AM 69.8 °F 60.8 °F 73% 29.86 in 10.0 mi SSE 12.7 mph 19.6 mph N/A   Scattered Clouds
12:35 AM 69.8 °F 60.8 °F 73% 29.85 in 10.0 mi SSE 15.0 mph 20.7 mph N/A   Scattered Clouds
12:55 AM 69.8 °F 60.8 °F 73% 29.85 in 10.0 mi SSE 12.7 mph 18.4 mph N/A   Clear
1:15 AM 68.0 °F 60.8 °F 78% 29.84 in 10.0 mi SSE 11.5 mph 18.4 mph N/A   Clear
1:35 AM 69.8 °F 60.8 °F 73% 29.83 in 10.0 mi SSE 12.7 mph 18.4 mph N/A   Clear
1:55 AM 69.8 °F 60.8 °F 73% 29.83 in 10.0 mi SSE 11.5 mph 18.4 mph N/A   Clear
2:15 AM 68.0 °F 60.8 °F 78% 29.83 in 10.0 mi SSE 12.7 mph - N/A   Clear
2:35 AM 68.0 °F 60.8 °F 78% 29.83 in 10.0 mi SSE 11.5 mph 19.6 mph N/A   Clear
2:55 AM 68.0 °F 60.8 °F 78% 29.82 in 10.0 mi SSE 15.0 mph - N/A   Clear
3:15 AM 68.0 °F 60.8 °F 78% 29.82 in 10.0 mi SSE 13.8 mph 20.7 mph N/A   Clear
3:35 AM 69.8 °F 60.8 °F 73% 29.81 in 10.0 mi South 15.0 mph 21.9 mph N/A   Mostly Cloudy
3:55 AM 69.8 °F 60.8 °F 73% 29.81 in 10.0 mi South 16.1 mph 23.0 mph N/A   Overcast
4:15 AM 69.8 °F 60.8 °F 73% 29.80 in 10.0 mi South 16.1 mph 21.9 mph N/A   Overcast
4:35 AM 69.8 °F 60.8 °F 73% 29.79 in 10.0 mi South 17.3 mph 23.0 mph N/A   Overcast
4:55 AM 71.6 °F 60.8 °F 69% 29.80 in 10.0 mi South 16.1 mph 32.2 mph N/A   Overcast
5:15 AM 71.6 °F 60.8 °F 69% 29.80 in 10.0 mi South 20.7 mph 26.5 mph N/A   Mostly Cloudy
5:35 AM 71.6 °F 60.8 °F 69% 29.79 in 10.0 mi South 17.3 mph 29.9 mph N/A   Mostly Cloudy
5:55 AM 71.6 °F 60.8 °F 69% 29.78 in 10.0 mi SSE 18.4 mph 26.5 mph N/A   Overcast
6:15 AM 68.0 °F 62.6 °F 83% 29.81 in 2.5 mi South 13.8 mph 25.3 mph N/A Rain Heavy Rain
6:35 AM 66.2 °F 62.6 °F 88% 29.82 in 9.0 mi South 18.4 mph 25.3 mph N/A   Overcast
6:55 AM 66.2 °F 62.6 °F 88% 29.82 in 10.0 mi South 13.8 mph 23.0 mph 0.05 in   Overcast
7:15 AM 66.2 °F 64.4 °F 94% 29.82 in 10.0 mi South 15.0 mph - N/A   Overcast
7:35 AM 66.2 °F 64.4 °F 94% 29.82 in 10.0 mi South 12.7 mph - N/A   Overcast
7:55 AM 66.2 °F 64.4 °F 94% 29.81 in 10.0 mi South 15.0 mph 20.7 mph N/A   Mostly Cloudy
8:15 AM 66.2 °F 64.4 °F 94% 29.81 in - South 13.8 mph - N/A   Mostly Cloudy
8:35 AM 66.2 °F 64.4 °F 94% 29.81 in 10.0 mi South 15.0 mph 20.7 mph N/A   Mostly Cloudy
8:55 AM 68.0 °F 64.4 °F 88% 29.81 in 10.0 mi SSE 13.8 mph - N/A   Mostly Cloudy
9:15 AM 68.0 °F 64.4 °F 88% 29.81 in 10.0 mi South 16.1 mph 23.0 mph N/A   Mostly Cloudy
9:35 AM 68.0 °F 64.4 °F 88% 29.82 in 9.0 mi South 16.1 mph 24.2 mph N/A   Overcast
9:55 AM 68.0 °F 64.4 °F 88% 29.83 in 8.0 mi South 17.3 mph - N/A   Overcast
10:15 AM 66.2 °F 64.4 °F 94% 29.82 in 3.0 mi South 13.8 mph 20.7 mph N/A   Overcast
10:35 AM 66.2 °F 64.4 °F 94% 29.83 in 2.5 mi SSW 13.8 mph 19.6 mph N/A   Mostly Cloudy
10:55 AM 57.2 °F 55.4 °F 94% 29.86 in 10.0 mi WNW 17.3 mph 32.2 mph 0.03 in   Light Drizzle
11:15 AM 57.2 °F 55.4 °F 94% 29.90 in 10.0 mi WNW 20.7 mph 26.5 mph N/A   Overcast
11:35 AM 55.4 °F 53.6 °F 94% 29.91 in 1.8 mi WNW 21.9 mph 31.1 mph N/A Rain Light Rain
11:55 AM 55.4 °F 53.6 °F 94% 29.92 in 3.0 mi NW 18.4 mph 27.6 mph 0.01 in   Light Drizzle
12:15 PM 55.4 °F 53.6 °F 94% 29.92 in 2.5 mi NW 12.7 mph 21.9 mph N/A   Light Drizzle
12:35 PM 55.4 °F 53.6 °F 94% 29.93 in 3.0 mi NW 11.5 mph 18.4 mph N/A   Light Drizzle
12:55 PM 55.4 °F 53.6 °F 94% 29.93 in 9.0 mi NW 10.4 mph - N/A   Overcast
1:15 PM 55.4 °F 53.6 °F 94% 29.94 in 10.0 mi WNW 12.7 mph - N/A   Overcast
1:35 PM 57.2 °F 53.6 °F 88% 29.94 in 9.0 mi NW 13.8 mph 19.6 mph N/A Rain Light Rain
1:55 PM 57.2 °F 53.6 °F 88% 29.94 in 10.0 mi WNW 12.7 mph - N/A   Overcast
2:15 PM 59.0 °F 53.6 °F 82% 29.95 in 10.0 mi WNW 17.3 mph - N/A   Overcast
2:35 PM 59.0 °F 53.6 °F 82% 29.95 in 10.0 mi NW 15.0 mph 21.9 mph N/A   Overcast
2:55 PM 59.0 °F 51.8 °F 77% 29.95 in 10.0 mi NW 13.8 mph - N/A   Mostly Cloudy
3:15 PM 59.0 °F 51.8 °F 77% 29.96 in 10.0 mi NNW 13.8 mph - N/A   Mostly Cloudy
3:35 PM 60.8 °F 51.8 °F 72% 29.97 in 10.0 mi WNW 12.7 mph 18.4 mph N/A   Mostly Cloudy
3:55 PM 60.8 °F 51.8 °F 72% 29.97 in 10.0 mi WNW 10.4 mph 17.3 mph N/A   Mostly Cloudy
4:15 PM 62.6 °F 51.8 °F 68% 29.97 in 10.0 mi NW 9.2 mph - N/A   Scattered Clouds
4:35 PM 62.6 °F 51.8 °F 68% 29.97 in 10.0 mi WNW 11.5 mph 18.4 mph N/A   Scattered Clouds
4:55 PM 62.6 °F 50.0 °F 63% 29.98 in 10.0 mi WNW 11.5 mph - N/A   Mostly Cloudy
5:15 PM 64.4 °F 50.0 °F 59% 29.98 in 10.0 mi NW 13.8 mph 20.7 mph N/A   Mostly Cloudy
5:35 PM 64.4 °F 50.0 °F 59% 29.99 in 10.0 mi WNW 11.5 mph 17.3 mph N/A   Mostly Cloudy
5:55 PM 64.4 °F 48.2 °F 56% 30.00 in 10.0 mi NW 12.7 mph - N/A   Partly Cloudy
6:15 PM 62.6 °F 48.2 °F 59% 30.00 in 9.0 mi WNW 9.2 mph - N/A   Clear
6:35 PM 60.8 °F 48.2 °F 63% 30.01 in 10.0 mi WNW 6.9 mph - N/A   Clear
6:55 PM 59.0 °F 48.2 °F 67% 30.00 in 10.0 mi WNW 5.8 mph - N/A   Clear
7:15 PM 59.0 °F 48.2 °F 67% 30.01 in 10.0 mi Calm Calm - N/A   Clear
7:35 PM 57.2 °F 48.2 °F 72% 30.01 in 10.0 mi WSW 3.5 mph - N/A   Clear
7:55 PM 57.2 °F 48.2 °F 72% 30.02 in 10.0 mi West 4.6 mph - N/A   Clear
8:15 PM 55.4 °F 48.2 °F 77% 30.02 in 10.0 mi Calm Calm - N/A   Clear
8:35 PM 55.4 °F 48.2 °F 77% 30.03 in 10.0 mi West 4.6 mph - N/A   Clear
8:55 PM 55.4 °F 48.2 °F 77% 30.04 in 10.0 mi West 5.8 mph - N/A   Clear
9:15 PM 53.6 °F 46.4 °F 77% 30.05 in 10.0 mi WNW 4.6 mph - N/A   Clear
9:35 PM 53.6 °F 46.4 °F 77% 30.05 in 10.0 mi WNW 4.6 mph - N/A   Clear
9:55 PM 53.6 °F 46.4 °F 77% 30.06 in 10.0 mi NW 4.6 mph - N/A   Clear
10:15 PM 53.6 °F 46.4 °F 77% 30.06 in 10.0 mi WNW 4.6 mph - N/A   Clear
10:35 PM 51.8 °F 46.4 °F 82% 30.06 in 10.0 mi WNW 3.5 mph - N/A   Clear
10:55 PM 53.6 °F 46.4 °F 77% 30.07 in 10.0 mi Calm Calm - N/A   Clear
11:15 PM 50.0 °F 46.4 °F 87% 30.07 in 10.0 mi Calm Calm - N/A   Clear
11:35 PM 48.2 °F 46.4 °F 93% 30.07 in 10.0 mi Calm Calm - N/A   Clear
11:55 PM 51.8 °F 46.4 °F 82% 30.08 in 10.0 mi Calm Calm - N/A   Clear